Time;durP1;ratioP1;P1;durP2;ratioP2;P2;SDS_P1;SDS_P2;PMS_P1;PMS_P2;Temp;Humidity;BMP_temperature;BMP_pressure;BME280_temperature;BME280_humidity;BME280_pressure;Samples;Min_cycle;Max_cycle;Signal;HPM_P1;HPM_P2
2023/08/22 00:02:27;;;;;;;6.40;5.17;;;28.50;80.50;;;;;;5014542;28;20278;-71
2023/08/22 00:04:55;;;;;;;6.03;5.43;;;28.50;80.50;;;;;;5013727;28;20276;-71
2023/08/22 00:07:23;;;;;;;6.80;5.60;;;28.50;80.60;;;;;;5012706;28;20250;-72
2023/08/22 00:09:50;;;;;;;6.10;5.50;;;28.50;80.60;;;;;;5013918;28;20223;-71
2023/08/22 00:12:18;;;;;;;6.47;5.87;;;28.50;80.60;;;;;;5013641;28;20737;-71
2023/08/22 00:14:45;;;;;;;6.40;5.83;;;28.50;80.70;;;;;;5014261;28;20321;-71
2023/08/22 00:17:12;;;;;;;5.67;5.10;;;28.50;80.80;;;;;;5013682;28;20203;-71
2023/08/22 00:19:38;;;;;;;6.30;5.57;;;28.40;81.00;;;;;;5013421;28;20211;-71
2023/08/22 00:22:07;;;;;;;5.97;5.20;;;28.40;81.00;;;;;;5013749;28;20732;-71
2023/08/22 00:24:34;;;;;;;7.00;5.73;;;28.40;81.00;;;;;;5013028;28;20749;-71
2023/08/22 00:27:00;;;;;;;7.10;5.80;;;28.30;80.90;;;;;;5013752;28;20209;-71
2023/08/22 00:29:27;;;;;;;6.33;5.80;;;28.30;80.90;;;;;;5013612;28;20663;-72
2023/08/22 00:31:54;;;;;;;6.37;5.53;;;28.30;80.90;;;;;;5013763;28;20207;-71
2023/08/22 00:34:21;;;;;;;5.77;5.13;;;28.20;80.80;;;;;;5013391;28;20206;-71
2023/08/22 00:36:48;;;;;;;6.50;5.83;;;28.20;81.10;;;;;;5013645;28;20223;-71
2023/08/22 00:39:16;;;;;;;6.30;5.70;;;28.20;81.40;;;;;;5011948;28;20215;-71
2023/08/22 00:41:43;;;;;;;7.00;6.30;;;28.10;81.40;;;;;;5013099;28;20234;-71
2023/08/22 00:44:10;;;;;;;6.03;5.43;;;28.00;82.30;;;;;;5013498;28;20227;-71
2023/08/22 00:46:36;;;;;;;8.67;5.83;;;28.00;81.70;;;;;;5013204;28;20206;-71
2023/08/22 00:49:08;;;;;;;7.40;5.70;;;28.00;81.80;;;;;;5013501;28;20207;-71
2023/08/22 00:51:36;;;;;;;6.40;5.80;;;27.90;81.90;;;;;;5013650;28;20195;-72
2023/08/22 00:54:02;;;;;;;6.77;5.87;;;27.90;81.90;;;;;;5012325;28;20707;-71
2023/08/22 00:56:31;;;;;;;5.90;5.40;;;27.90;81.80;;;;;;5013059;28;20721;-71
2023/08/22 00:58:59;;;;;;;7.23;6.20;;;27.90;82.60;;;;;;5013021;28;20229;-72
2023/08/22 01:01:26;;;;;;;6.67;5.90;;;27.90;81.80;;;;;;5012821;28;20668;-71
2023/08/22 01:03:53;;;;;;;7.93;5.57;;;27.90;81.70;;;;;;5013081;28;20216;-71
2023/08/22 01:06:27;;;;;;;5.70;5.20;;;27.90;81.70;;;;;;5012999;28;20463;-72
2023/08/22 01:09:04;;;;;;;5.97;5.13;;;27.90;82.10;;;;;;5012512;28;20354;-72
2023/08/22 01:11:38;;;;;;;6.40;5.77;;;27.90;82.00;;;;;;5012279;28;20256;-71
2023/08/22 01:14:10;;;;;;;6.10;5.50;;;27.80;81.90;;;;;;5012883;28;20192;-71
2023/08/22 01:16:37;;;;;;;6.33;5.83;;;27.90;82.00;;;;;;5012620;28;20212;-71
2023/08/22 01:19:06;;;;;;;7.27;5.63;;;27.80;81.80;;;;;;5011218;28;20223;-71
2023/08/22 01:21:35;;;;;;;7.13;6.13;;;27.80;82.70;;;;;;5012598;28;20209;-71
2023/08/22 01:24:04;;;;;;;6.13;5.53;;;27.80;82.00;;;;;;5012447;28;20208;-71
2023/08/22 01:26:31;;;;;;;6.70;5.57;;;27.70;81.90;;;;;;4992766;28;20204;-71
2023/08/22 01:29:03;;;;;;;6.30;5.23;;;27.70;81.70;;;;;;4993055;28;20259;-71
2023/08/22 01:31:34;;;;;;;5.90;5.40;;;27.70;82.00;;;;;;4993061;28;20202;-71
2023/08/22 01:34:08;;;;;;;6.67;5.97;;;27.60;82.00;;;;;;5008444;28;20198;-72
2023/08/22 01:36:36;;;;;;;6.03;5.53;;;27.60;82.30;;;;;;5012570;28;20210;-71
2023/08/22 01:39:07;;;;;;;6.53;5.90;;;27.60;82.20;;;;;;5012256;28;20205;-71
2023/08/22 01:41:34;;;;;;;7.00;6.07;;;27.60;82.30;;;;;;5012424;28;20760;-71
2023/08/22 01:44:04;;;;;;;7.17;6.10;;;27.50;82.30;;;;;;4999137;28;20245;-71
2023/08/22 01:46:31;;;;;;;7.67;5.47;;;27.40;82.50;;;;;;5011997;28;20233;-71
2023/08/22 01:48:57;;;;;;;5.80;5.20;;;27.40;82.60;;;;;;5012343;28;20580;-71
2023/08/22 01:51:24;;;;;;;7.83;6.20;;;27.30;82.80;;;;;;5012255;28;20210;-71
2023/08/22 01:53:51;;;;;;;7.77;5.57;;;27.30;82.70;;;;;;5012501;28;20221;-72
2023/08/22 01:56:19;;;;;;;6.37;5.67;;;27.30;82.90;;;;;;5011794;28;20630;-71
2023/08/22 01:58:47;;;;;;;5.80;5.20;;;27.30;83.00;;;;;;5011856;28;20361;-71
2023/08/22 02:01:14;;;;;;;6.47;5.87;;;27.30;83.10;;;;;;5012200;28;20232;-72
2023/08/22 02:03:42;;;;;;;7.37;5.13;;;27.20;83.00;;;;;;5012328;28;20638;-72
2023/08/22 02:06:09;;;;;;;5.67;5.00;;;27.30;83.00;;;;;;5011743;28;20220;-71
2023/08/22 02:08:37;;;;;;;6.47;5.43;;;27.30;82.90;;;;;;5011851;28;20233;-71
2023/08/22 02:11:04;;;;;;;5.77;5.03;;;27.30;82.90;;;;;;5012286;28;20296;-71
2023/08/22 02:13:32;;;;;;;6.00;5.43;;;27.30;82.80;;;;;;5012056;28;20690;-71
2023/08/22 02:16:00;;;;;;;6.60;5.20;;;27.20;82.80;;;;;;5011712;28;20683;-71
2023/08/22 02:18:27;;;;;;;6.30;5.07;;;27.30;82.80;;;;;;4993252;28;20240;-71
2023/08/22 02:20:56;;;;;;;5.37;4.70;;;27.20;82.80;;;;;;5011371;28;20211;-71
2023/08/22 02:23:23;;;;;;;5.97;5.37;;;27.20;82.90;;;;;;5011831;28;20202;-71
2023/08/22 02:25:49;;;;;;;5.43;4.93;;;27.30;82.90;;;;;;5012062;28;20229;-71
2023/08/22 02:28:16;;;;;;;6.20;5.23;;;27.20;82.60;;;;;;5011482;28;20238;-71
2023/08/22 02:30:44;;;;;;;5.87;4.87;;;27.20;82.50;;;;;;5014539;28;20223;-71
2023/08/22 02:33:11;;;;;;;5.37;4.93;;;27.20;82.40;;;;;;5015968;28;20225;-71
2023/08/22 02:35:38;;;;;;;6.40;5.73;;;27.20;82.30;;;;;;5015760;28;20659;-71
2023/08/22 02:38:05;;;;;;;6.43;5.77;;;27.20;82.60;;;;;;5015427;28;20216;-71
2023/08/22 02:40:32;;;;;;;5.87;5.37;;;27.10;83.60;;;;;;5016000;28;20205;-71
2023/08/22 02:42:59;;;;;;;6.77;5.60;;;27.10;82.90;;;;;;5010370;28;20303;-71
2023/08/22 02:45:26;;;;;;;6.40;5.80;;;27.10;82.90;;;;;;5007138;28;20311;-71
2023/08/22 02:47:54;;;;;;;6.53;5.93;;;27.00;83.00;;;;;;5015475;28;20388;-72
2023/08/22 02:50:23;;;;;;;6.40;5.80;;;26.90;83.40;;;;;;5015160;28;20718;-72
2023/08/22 02:52:50;;;;;;;7.60;6.23;;;26.80;83.80;;;;;;5015298;28;20218;-71
2023/08/22 02:55:17;;;;;;;8.57;6.20;;;26.80;84.00;;;;;;5015587;28;20259;-72
2023/08/22 02:57:45;;;;;;;5.77;5.27;;;26.70;84.20;;;;;;5015566;28;20211;-71
2023/08/22 03:00:13;;;;;;;5.87;5.27;;;26.60;84.30;;;;;;5015477;28;20227;-71
2023/08/22 03:02:40;;;;;;;7.33;5.53;;;26.60;84.40;;;;;;5015284;28;20250;-71
2023/08/22 03:05:12;;;;;;;5.53;5.03;;;26.60;84.20;;;;;;5015184;28;20226;-71
2023/08/22 03:07:40;;;;;;;6.50;5.60;;;26.70;84.30;;;;;;5014944;28;21009;-72
2023/08/22 03:10:08;;;;;;;6.20;5.03;;;26.70;84.10;;;;;;5015196;28;20587;-71
2023/08/22 03:12:35;;;;;;;7.53;5.47;;;26.70;83.90;;;;;;5015178;28;20576;-71
2023/08/22 03:15:02;;;;;;;5.90;5.40;;;26.80;83.90;;;;;;5015239;28;20207;-71
2023/08/22 03:17:29;;;;;;;6.13;4.90;;;26.80;84.30;;;;;;5014666;28;20217;-71
2023/08/22 03:19:56;;;;;;;5.57;4.80;;;26.80;83.60;;;;;;5014275;28;20303;-71
2023/08/22 03:22:25;;;;;;;5.87;5.30;;;26.80;83.50;;;;;;5015053;28;20412;-72
2023/08/22 03:24:51;;;;;;;5.80;5.17;;;26.80;83.30;;;;;;5013752;28;20564;-71
2023/08/22 03:27:18;;;;;;;6.30;5.43;;;26.80;83.30;;;;;;5015096;28;20207;-71
2023/08/22 03:29:45;;;;;;;6.10;5.00;;;26.80;83.30;;;;;;5014860;28;20219;-71
2023/08/22 03:32:12;;;;;;;5.30;4.80;;;26.80;83.30;;;;;;5014632;28;20232;-71
2023/08/22 03:34:39;;;;;;;7.47;4.90;;;26.80;83.30;;;;;;5014729;28;20718;-71
2023/08/22 03:37:05;;;;;;;6.20;5.60;;;26.80;83.40;;;;;;5014581;28;20321;-71
2023/08/22 03:39:36;;;;;;;5.03;4.53;;;26.80;83.40;;;;;;5014649;28;20193;-71
2023/08/22 03:42:03;;;;;;;7.43;5.13;;;26.80;83.30;;;;;;5014735;28;20204;-72
2023/08/22 03:44:31;;;;;;;6.27;5.67;;;26.80;83.20;;;;;;5014504;28;20664;-72
2023/08/22 03:46:58;;;;;;;5.63;5.13;;;26.70;83.10;;;;;;5014353;28;20229;-71
2023/08/22 03:49:25;;;;;;;5.93;5.10;;;26.70;83.00;;;;;;5014198;28;20350;-71
2023/08/22 03:51:52;;;;;;;6.83;5.37;;;26.60;83.00;;;;;;5014624;28;20222;-71
2023/08/22 03:54:18;;;;;;;5.30;4.80;;;26.60;83.00;;;;;;5014241;28;20219;-72
2023/08/22 03:56:47;;;;;;;5.83;5.10;;;26.60;83.00;;;;;;5014431;28;20192;-71
2023/08/22 03:59:13;;;;;;;5.37;4.87;;;26.60;83.00;;;;;;5013869;28;20221;-71
2023/08/22 04:01:41;;;;;;;5.57;5.07;;;26.60;83.00;;;;;;5014401;28;20647;-71
2023/08/22 04:04:09;;;;;;;5.73;5.23;;;26.50;82.90;;;;;;5014388;28;20216;-71
2023/08/22 04:06:35;;;;;;;5.40;4.60;;;26.50;82.90;;;;;;5012815;28;20244;-71
2023/08/22 04:09:02;;;;;;;5.10;4.60;;;26.50;83.70;;;;;;5013524;28;20233;-71
2023/08/22 04:11:29;;;;;;;5.37;4.87;;;26.50;82.90;;;;;;5013655;28;20690;-71
2023/08/22 04:13:57;;;;;;;5.73;4.80;;;26.40;83.00;;;;;;5014400;28;20211;-71
2023/08/22 04:16:24;;;;;;;5.87;5.20;;;26.40;82.90;;;;;;5013866;28;20207;-71
2023/08/22 04:18:51;;;;;;;6.57;5.33;;;26.40;83.00;;;;;;5013991;28;20240;-70
2023/08/22 04:21:18;;;;;;;6.60;5.67;;;26.30;83.40;;;;;;5013870;28;20212;-71
2023/08/22 04:23:44;;;;;;;6.40;5.60;;;26.30;83.60;;;;;;5014169;28;20314;-71
2023/08/22 04:26:11;;;;;;;6.87;6.20;;;26.30;83.80;;;;;;4994956;28;20234;-72
2023/08/22 04:28:38;;;;;;;6.27;5.50;;;26.20;83.90;;;;;;5013995;28;20427;-72
2023/08/22 04:31:06;;;;;;;6.47;5.87;;;26.20;84.10;;;;;;5013569;28;20614;-72
2023/08/22 04:33:33;;;;;;;5.60;5.10;;;26.20;84.10;;;;;;5013919;28;20215;-72
2023/08/22 04:36:00;;;;;;;6.53;5.93;;;26.20;85.00;;;;;;5013454;28;20220;-71
2023/08/22 04:38:27;;;;;;;6.70;5.70;;;26.20;84.40;;;;;;5013683;28;20224;-71
2023/08/22 04:40:54;;;;;;;6.20;5.60;;;26.20;84.40;;;;;;5013448;28;20219;-71
2023/08/22 04:43:20;;;;;;;7.00;5.43;;;26.20;84.40;;;;;;5005653;28;20570;-71
2023/08/22 04:45:50;;;;;;;6.30;5.70;;;26.20;84.40;;;;;;4995970;28;20255;-71
2023/08/22 04:48:20;;;;;;;6.57;5.83;;;26.20;84.40;;;;;;5013102;28;20241;-71
2023/08/22 04:50:46;;;;;;;5.73;5.23;;;26.20;84.40;;;;;;5013610;28;20566;-71
2023/08/22 04:53:13;;;;;;;6.97;5.90;;;26.20;84.40;;;;;;5012745;28;20213;-71
2023/08/22 04:55:40;;;;;;;7.00;6.03;;;26.20;84.40;;;;;;5013400;28;20194;-71
2023/08/22 04:58:08;;;;;;;7.43;5.47;;;26.20;84.40;;;;;;5013086;28;20230;-71
2023/08/22 05:00:35;;;;;;;8.10;5.50;;;26.20;84.40;;;;;;5013266;28;20323;-71
2023/08/22 05:03:02;;;;;;;8.17;6.07;;;26.20;84.40;;;;;;5013287;28;20649;-71
2023/08/22 05:05:31;;;;;;;6.67;5.60;;;26.30;84.50;;;;;;5013486;28;20588;-71
2023/08/22 05:07:57;;;;;;;5.87;5.37;;;26.30;84.50;;;;;;5012484;28;20318;-71
2023/08/22 05:10:24;;;;;;;6.40;5.70;;;26.30;84.40;;;;;;5013233;28;20192;-71
2023/08/22 05:12:51;;;;;;;5.80;5.30;;;26.30;84.40;;;;;;5019464;28;20244;-71
2023/08/22 05:15:18;;;;;;;8.20;6.10;;;26.30;84.50;;;;;;5017135;28;20229;-71
2023/08/22 05:17:45;;;;;;;5.43;4.93;;;26.40;84.50;;;;;;5013856;28;20227;-71
2023/08/22 05:20:13;;;;;;;7.07;6.30;;;26.30;84.20;;;;;;5015794;28;20694;-71
2023/08/22 05:22:41;;;;;;;7.33;5.77;;;26.40;84.40;;;;;;5015266;28;20349;-71
2023/08/22 05:25:09;;;;;;;7.10;6.10;;;26.30;84.40;;;;;;5014400;28;20191;-71
2023/08/22 05:27:36;;;;;;;6.33;5.80;;;26.30;84.50;;;;;;5012851;28;20203;-71
2023/08/22 05:30:02;;;;;;;5.90;5.13;;;26.30;84.50;;;;;;5012945;28;20233;-71
2023/08/22 05:32:29;;;;;;;7.23;5.70;;;26.30;84.50;;;;;;5012906;28;20216;-71
2023/08/22 05:34:56;;;;;;;8.93;5.97;;;26.30;84.50;;;;;;5014067;28;20231;-71
2023/08/22 05:37:23;;;;;;;6.27;5.67;;;26.40;84.60;;;;;;5012349;28;20192;-71
2023/08/22 05:39:51;;;;;;;6.50;5.80;;;26.40;84.60;;;;;;5011885;28;20686;-72
2023/08/22 05:42:18;;;;;;;6.23;5.70;;;26.40;84.60;;;;;;5011940;28;21005;-72
2023/08/22 05:44:45;;;;;;;8.37;6.23;;;26.50;85.30;;;;;;4995581;28;20287;-71
2023/08/22 05:47:12;;;;;;;6.07;5.57;;;26.50;84.50;;;;;;5012199;28;20238;-71
2023/08/22 05:49:38;;;;;;;6.23;5.63;;;26.60;84.50;;;;;;5012622;28;20212;-71
2023/08/22 05:52:06;;;;;;;7.30;6.50;;;26.60;84.50;;;;;;5013870;28;20320;-71
2023/08/22 05:54:33;;;;;;;7.27;6.67;;;26.60;84.40;;;;;;5014577;28;20187;-71
2023/08/22 05:57:02;;;;;;;8.87;6.47;;;26.70;83.90;;;;;;5003450;28;20731;-71
2023/08/22 05:59:29;;;;;;;6.73;6.13;;;26.70;83.80;;;;;;4993410;28;20211;-71
2023/08/22 06:01:56;;;;;;;7.00;6.40;;;26.80;83.80;;;;;;5012082;28;20299;-71
2023/08/22 06:04:22;;;;;;;7.37;6.70;;;26.80;83.70;;;;;;5011688;28;20228;-71
2023/08/22 06:06:50;;;;;;;7.30;6.47;;;26.80;83.60;;;;;;5012759;28;20690;-71
2023/08/22 06:09:17;;;;;;;7.57;6.97;;;26.90;83.70;;;;;;5012510;28;20334;-71
2023/08/22 06:11:43;;;;;;;7.80;7.00;;;26.90;83.70;;;;;;5011480;28;20215;-71
2023/08/22 06:14:12;;;;;;;7.07;6.47;;;27.00;83.50;;;;;;5012126;28;20226;-71
2023/08/22 06:16:39;;;;;;;8.00;7.20;;;27.00;83.60;;;;;;5012118;28;20191;-71
2023/08/22 06:19:06;;;;;;;8.43;6.77;;;27.10;83.70;;;;;;5012057;28;20212;-71
2023/08/22 06:21:33;;;;;;;7.47;6.77;;;27.10;83.70;;;;;;5012051;28;20233;-71
2023/08/22 06:24:00;;;;;;;7.17;6.47;;;27.10;83.60;;;;;;5011925;28;20217;-71
2023/08/22 06:26:26;;;;;;;7.23;6.63;;;27.20;83.60;;;;;;5011418;28;20323;-71
2023/08/22 06:28:53;;;;;;;8.03;6.33;;;27.20;83.50;;;;;;5011880;28;20218;-70
2023/08/22 06:31:21;;;;;;;7.17;6.47;;;27.30;83.50;;;;;;5011735;28;20384;-71
2023/08/22 06:33:48;;;;;;;6.30;5.77;;;27.40;84.20;;;;;;5011414;28;20664;-71
2023/08/22 06:36:15;;;;;;;8.77;7.17;;;27.40;83.30;;;;;;5011566;28;20209;-71
2023/08/22 06:38:42;;;;;;;7.17;6.47;;;27.50;83.20;;;;;;5011806;28;20257;-71
2023/08/22 06:41:09;;;;;;;8.70;6.90;;;27.60;83.00;;;;;;5011596;28;20223;-71
2023/08/22 06:43:35;;;;;;;7.50;6.80;;;27.70;83.00;;;;;;5001503;28;20316;-71
2023/08/22 06:46:02;;;;;;;6.90;6.30;;;27.70;83.60;;;;;;4992057;28;20214;-71
2023/08/22 06:48:31;;;;;;;8.03;7.30;;;27.80;82.90;;;;;;4973345;28;20585;-71
2023/08/22 06:50:57;;;;;;;8.90;8.07;;;27.90;82.60;;;;;;4991986;28;20214;-71
2023/08/22 06:53:24;;;;;;;8.10;7.30;;;27.90;82.30;;;;;;4992222;28;20214;-71
2023/08/22 06:55:51;;;;;;;7.83;7.03;;;27.90;82.30;;;;;;4991670;28;20232;-71
2023/08/22 06:58:18;;;;;;;8.17;6.20;;;28.00;82.40;;;;;;4992079;28;20573;-71
2023/08/22 07:00:45;;;;;;;7.87;7.13;;;28.00;82.50;;;;;;4991614;28;20767;-71
2023/08/22 07:03:12;;;;;;;8.23;7.43;;;28.10;82.60;;;;;;4991802;28;20191;-71
2023/08/22 07:05:40;;;;;;;8.00;7.30;;;28.20;82.30;;;;;;4991453;28;20211;-71
2023/08/22 07:08:07;;;;;;;7.63;6.80;;;28.10;81.70;;;;;;4991798;28;20246;-71
2023/08/22 07:10:34;;;;;;;8.20;7.40;;;28.20;81.90;;;;;;4991306;28;20678;-71
2023/08/22 07:13:02;;;;;;;7.90;7.10;;;28.20;81.70;;;;;;4991947;28;20231;-71
2023/08/22 07:15:29;;;;;;;7.73;6.40;;;28.30;81.00;;;;;;4992040;28;20223;-71
2023/08/22 07:17:57;;;;;;;7.30;6.70;;;28.50;81.10;;;;;;4995927;28;20629;-71
2023/08/22 07:20:24;;;;;;;6.53;5.87;;;28.60;81.70;;;;;;5009741;28;20682;-71
2023/08/22 07:22:52;;;;;;;6.37;5.87;;;28.60;81.30;;;;;;5015174;28;20220;-71
2023/08/22 07:25:20;;;;;;;7.83;6.40;;;28.70;81.10;;;;;;5014679;28;20234;-71
2023/08/22 07:27:47;;;;;;;6.53;5.90;;;28.80;81.30;;;;;;4980494;28;20660;-71
2023/08/22 07:30:14;;;;;;;6.87;5.83;;;28.80;80.10;;;;;;5014346;28;20238;-71
2023/08/22 07:32:41;;;;;;;5.27;4.83;;;28.80;79.80;;;;;;5014802;28;20306;-71
2023/08/22 07:35:08;;;;;;;6.97;5.83;;;28.90;79.00;;;;;;5015004;28;20207;-71
2023/08/22 07:37:35;;;;;;;5.67;5.17;;;28.90;78.50;;;;;;5014614;28;20219;-71
2023/08/22 07:40:05;;;;;;;6.43;5.60;;;28.90;77.60;;;;;;5014293;28;20213;-71
2023/08/22 07:42:34;;;;;;;8.90;5.20;;;28.90;77.50;;;;;;5014887;28;20231;-71
2023/08/22 07:45:01;;;;;;;6.00;5.40;;;28.90;77.60;;;;;;5014323;28;20226;-71
2023/08/22 07:47:28;;;;;;;7.50;6.00;;;29.00;77.50;;;;;;5014267;28;20234;-71
2023/08/22 07:49:55;;;;;;;6.37;5.77;;;29.10;77.30;;;;;;5014351;28;20636;-71
2023/08/22 07:52:22;;;;;;;6.80;6.27;;;29.20;77.40;;;;;;5014537;28;20217;-72
2023/08/22 07:54:48;;;;;;;6.33;5.47;;;29.30;77.10;;;;;;5014245;28;20689;-71
2023/08/22 07:57:17;;;;;;;7.13;6.27;;;29.50;76.60;;;;;;4995384;28;20549;-71
2023/08/22 07:59:43;;;;;;;6.40;5.70;;;29.50;76.40;;;;;;5014000;28;20429;-71
2023/08/22 08:02:10;;;;;;;6.53;5.87;;;29.60;76.30;;;;;;5014499;28;20325;-71
2023/08/22 08:04:37;;;;;;;6.40;5.80;;;29.70;75.90;;;;;;5014141;28;20722;-71
2023/08/22 08:07:04;;;;;;;7.90;5.80;;;29.80;75.40;;;;;;5013821;28;20222;-71
2023/08/22 08:09:32;;;;;;;7.40;5.47;;;29.80;75.00;;;;;;5013979;28;20642;-73
2023/08/22 08:11:59;;;;;;;6.80;6.10;;;29.90;74.20;;;;;;5016563;28;20239;-70
2023/08/22 08:14:27;;;;;;;6.10;5.50;;;29.90;74.20;;;;;;5016445;28;20217;-70
2023/08/22 08:16:54;;;;;;;5.97;5.23;;;30.00;74.00;;;;;;5017771;28;20329;-71
2023/08/22 08:19:21;;;;;;;6.30;5.70;;;30.00;74.30;;;;;;5016499;28;20206;-71
2023/08/22 08:21:48;;;;;;;6.07;5.50;;;30.10;73.80;;;;;;5015496;28;20207;-71
2023/08/22 08:24:16;;;;;;;6.93;5.40;;;30.10;73.00;;;;;;5014178;28;20289;-71
2023/08/22 08:26:43;;;;;;;6.17;5.67;;;30.10;72.90;;;;;;5013431;28;20718;-71
2023/08/22 08:29:11;;;;;;;6.30;5.23;;;30.20;73.00;;;;;;5013098;28;20230;-71
2023/08/22 08:31:39;;;;;;;6.30;5.13;;;30.20;72.40;;;;;;5013646;28;20207;-71
2023/08/22 08:34:06;;;;;;;9.27;5.57;;;30.30;73.20;;;;;;5013596;28;20237;-71
2023/08/22 08:36:33;;;;;;;5.60;5.10;;;30.50;73.50;;;;;;5013850;28;20191;-71
2023/08/22 08:38:59;;;;;;;7.57;5.23;;;30.60;72.00;;;;;;5013444;28;20207;-71
2023/08/22 08:41:29;;;;;;;5.37;4.73;;;30.60;70.90;;;;;;5013376;28;20746;-71
2023/08/22 08:43:58;;;;;;;6.03;5.00;;;30.60;69.40;;;;;;5000750;28;20215;-71
2023/08/22 08:46:26;;;;;;;6.07;4.67;;;30.60;69.10;;;;;;4994105;28;20656;-71
2023/08/22 08:48:55;;;;;;;5.07;4.13;;;30.70;69.10;;;;;;4993760;28;20215;-71
2023/08/22 08:51:22;;;;;;;4.10;3.73;;;30.80;67.10;;;;;;4993666;28;20238;-71
2023/08/22 08:53:50;;;;;;;4.53;4.07;;;30.90;67.70;;;;;;4993997;28;20259;-71
2023/08/22 08:56:20;;;;;;;5.53;4.00;;;31.00;65.90;;;;;;4993777;28;20212;-71
2023/08/22 08:58:47;;;;;;;5.10;4.57;;;31.10;67.00;;;;;;4993443;28;20240;-71
2023/08/22 09:01:14;;;;;;;6.23;4.50;;;31.20;67.10;;;;;;4993455;28;20246;-71
2023/08/22 09:03:43;;;;;;;5.77;4.67;;;31.40;67.20;;;;;;4993902;28;20239;-71
2023/08/22 09:06:11;;;;;;;5.33;4.43;;;31.50;66.90;;;;;;4993678;28;20244;-72
2023/08/22 09:08:39;;;;;;;6.43;4.00;;;31.60;65.70;;;;;;4992594;28;20614;-71
2023/08/22 09:11:05;;;;;;;4.07;3.63;;;31.70;64.90;;;;;;4993324;28;20202;-71
2023/08/22 09:13:32;;;;;;;4.07;3.60;;;31.80;65.10;;;;;;4993603;28;20216;-71
2023/08/22 09:16:00;;;;;;;4.20;3.80;;;31.90;63.70;;;;;;4993203;28;20230;-70
2023/08/22 09:18:28;;;;;;;5.20;3.63;;;32.00;63.80;;;;;;4993656;28;20209;-71
2023/08/22 09:21:03;;;;;;;4.50;3.87;;;32.10;62.20;;;;;;4992718;28;20241;-71
2023/08/22 09:23:32;;;;;;;5.33;4.10;;;32.10;60.80;;;;;;4993397;28;20212;-71
2023/08/22 09:26:01;;;;;;;4.93;3.90;;;32.20;61.70;;;;;;4993222;28;20229;-71
2023/08/22 09:28:27;;;;;;;5.27;4.03;;;32.30;62.20;;;;;;4993040;28;20235;-70
2023/08/22 09:30:54;;;;;;;4.30;3.47;;;32.40;61.10;;;;;;4992801;28;20216;-71
2023/08/22 09:33:21;;;;;;;4.67;3.57;;;32.40;59.10;;;;;;4993235;28;20229;-71
2023/08/22 09:35:55;;;;;;;3.83;3.50;;;32.50;59.80;;;;;;4992901;28;20213;-71
2023/08/22 09:38:22;;;;;;;4.93;3.67;;;32.60;59.30;;;;;;4992750;28;20236;-71
2023/08/22 09:40:55;;;;;;;3.73;3.30;;;32.60;60.40;;;;;;4992742;28;20196;-71
2023/08/22 09:43:23;;;;;;;4.33;3.60;;;32.70;59.80;;;;;;5001399;28;20260;-71
2023/08/22 09:45:51;;;;;;;3.90;3.50;;;32.80;59.10;;;;;;5012710;28;20215;-72
2023/08/22 09:48:23;;;;;;;4.10;3.47;;;33.00;59.50;;;;;;5012429;28;20593;-72
2023/08/22 09:50:54;;;;;;;6.13;3.13;;;33.10;58.20;;;;;;5011944;28;20241;-72
2023/08/22 09:53:21;;;;;;;5.30;3.50;;;33.10;58.10;;;;;;5012395;28;20286;-72
2023/08/22 09:55:48;;;;;;;4.03;3.17;;;33.10;57.60;;;;;;5012433;28;20236;-71
2023/08/22 09:58:18;;;;;;;4.00;3.30;;;33.20;58.10;;;;;;5012039;28;20202;-72
2023/08/22 10:00:46;;;;;;;3.83;3.10;;;33.20;57.40;;;;;;5011890;28;20248;-71
2023/08/22 10:03:13;;;;;;;4.13;3.40;;;33.20;56.80;;;;;;5012187;28;20220;-72
2023/08/22 10:05:42;;;;;;;3.80;3.40;;;33.10;57.10;;;;;;5012072;28;20205;-72
2023/08/22 10:08:09;;;;;;;4.40;3.50;;;33.10;57.30;;;;;;5011760;28;20260;-72
2023/08/22 10:10:36;;;;;;;3.80;3.50;;;33.10;57.10;;;;;;5011990;28;20221;-72
2023/08/22 10:13:05;;;;;;;4.03;3.70;;;33.20;57.40;;;;;;5011860;28;20838;-72
2023/08/22 10:15:35;;;;;;;4.87;3.50;;;33.30;57.00;;;;;;5012301;28;20625;-72
2023/08/22 10:18:03;;;;;;;4.43;3.67;;;33.40;56.90;;;;;;5011761;28;20666;-71
2023/08/22 10:20:33;;;;;;;5.57;3.50;;;33.60;57.00;;;;;;5011546;28;20214;-71
2023/08/22 10:23:00;;;;;;;4.20;3.20;;;33.80;56.30;;;;;;5011653;28;20225;-70
2023/08/22 10:25:48;;;;;;;4.20;3.20;;;33.80;55.10;;;;;;5012146;28;20321;-70
2023/08/22 10:28:15;;;;;;;4.00;3.30;;;33.90;54.80;;;;;;5011849;28;20211;-71
2023/08/22 10:31:03;;;;;;;3.97;3.30;;;34.10;55.40;;;;;;5026743;28;20227;-72
2023/08/22 10:33:30;;;;;;;5.10;3.20;;;34.20;54.50;;;;;;5011829;28;20302;-71
2023/08/22 10:36:08;;;;;;;4.30;3.47;;;34.30;54.60;;;;;;5011838;28;20213;-72
2023/08/22 10:38:56;;;;;;;5.50;3.37;;;34.40;54.00;;;;;;5011766;28;20193;-70
2023/08/22 10:41:23;;;;;;;3.87;3.47;;;34.10;53.60;;;;;;5011776;28;20261;-71
2023/08/22 10:43:50;;;;;;;3.53;3.23;;;34.10;54.80;;;;;;4999503;28;20537;-71
2023/08/22 10:46:18;;;;;;;5.87;3.93;;;34.20;55.10;;;;;;4992264;28;20599;-72
2023/08/22 10:48:47;;;;;;;4.03;3.70;;;34.30;55.20;;;;;;4991774;28;20459;-72
2023/08/22 10:51:14;;;;;;;3.73;3.40;;;34.30;56.00;;;;;;4993541;28;20211;-72
2023/08/22 10:53:44;;;;;;;4.13;3.20;;;34.50;56.50;;;;;;4995717;28;20296;-71
2023/08/22 10:56:20;;;;;;;3.70;3.33;;;34.70;54.30;;;;;;4996236;28;20274;-72
2023/08/22 10:58:58;;;;;;;3.63;3.33;;;34.60;53.00;;;;;;4995969;28;20628;-72
2023/08/22 11:01:27;;;;;;;3.93;3.17;;;34.60;53.10;;;;;;4995895;28;20200;-71
2023/08/22 11:03:55;;;;;;;3.40;3.13;;;34.50;53.60;;;;;;4995498;28;20456;-70
2023/08/22 11:06:24;;;;;;;4.40;3.27;;;34.50;54.50;;;;;;4995597;28;20286;-70
2023/08/22 11:08:52;;;;;;;4.83;3.43;;;34.60;54.00;;;;;;4995186;28;20696;-71
2023/08/22 11:11:20;;;;;;;4.57;3.80;;;34.80;54.10;;;;;;4995690;28;20227;-72
2023/08/22 11:13:48;;;;;;;4.30;3.30;;;34.80;53.60;;;;;;4995709;28;20220;-71
2023/08/22 11:16:16;;;;;;;4.77;3.40;;;34.80;53.40;;;;;;4995619;28;20230;-71
2023/08/22 11:18:48;;;;;;;3.30;3.00;;;34.80;53.30;;;;;;4995978;28;20208;-70
2023/08/22 11:21:16;;;;;;;3.37;3.07;;;34.70;53.10;;;;;;4995687;28;20193;-70
2023/08/22 11:23:43;;;;;;;3.03;2.83;;;34.70;53.30;;;;;;4995266;28;20239;-71
2023/08/22 11:26:12;;;;;;;5.43;3.00;;;34.80;53.90;;;;;;4995312;28;20212;-72
2023/08/22 11:28:40;;;;;;;3.20;2.90;;;35.00;54.30;;;;;;4995451;28;20248;-70
2023/08/22 11:31:14;;;;;;;3.23;2.90;;;35.10;54.10;;;;;;4994783;28;20351;-71
2023/08/22 11:33:57;;;;;;;3.30;2.90;;;35.30;53.30;;;;;;4995235;28;20239;-71
2023/08/22 11:36:24;;;;;;;3.80;3.10;;;35.20;51.70;;;;;;4994949;28;20230;-71
2023/08/22 11:38:52;;;;;;;3.60;3.30;;;35.20;52.20;;;;;;4995097;28;20287;-70
2023/08/22 11:41:21;;;;;;;3.57;3.00;;;35.10;51.60;;;;;;4995121;28;20225;-71
2023/08/22 11:43:52;;;;;;;3.57;2.93;;;35.20;52.20;;;;;;5006894;28;20209;-72
2023/08/22 11:46:22;;;;;;;4.47;3.07;;;35.30;51.90;;;;;;5014411;28;20232;-71
2023/08/22 11:48:51;;;;;;;4.63;2.60;;;35.30;51.80;;;;;;5014102;28;20236;-71
2023/08/22 11:51:20;;;;;;;4.13;2.77;;;35.40;51.70;;;;;;5014696;28;20203;-71
2023/08/22 11:53:49;;;;;;;3.47;2.77;;;35.40;51.20;;;;;;5014300;28;20341;-71
2023/08/22 11:56:16;;;;;;;3.00;2.70;;;35.40;52.00;;;;;;5014708;28;20213;-71
2023/08/22 11:58:53;;;;;;;3.73;3.10;;;35.50;51.20;;;;;;5014601;28;20220;-71
2023/08/22 12:01:22;;;;;;;3.50;3.20;;;35.30;50.60;;;;;;5014365;28;20211;-71
2023/08/22 12:03:49;;;;;;;4.50;2.90;;;35.30;51.30;;;;;;5014154;28;20285;-71
2023/08/22 12:06:16;;;;;;;4.53;2.77;;;35.40;51.60;;;;;;5014188;28;20324;-71
2023/08/22 12:09:00;;;;;;;3.90;2.77;;;35.40;51.60;;;;;;5013644;28;20718;-71
2023/08/22 12:11:28;;;;;;;3.23;2.93;;;35.50;53.10;;;;;;5014281;28;20223;-71
2023/08/22 12:13:55;;;;;;;3.40;3.10;;;35.80;51.90;;;;;;5014051;28;20297;-72
2023/08/22 12:16:21;;;;;;;3.23;2.93;;;35.80;51.20;;;;;;5013595;28;20243;-72
2023/08/22 12:18:48;;;;;;;3.73;2.83;;;36.00;52.80;;;;;;5013751;28;20206;-71
2023/08/22 12:21:15;;;;;;;3.10;2.73;;;36.20;52.60;;;;;;5014048;28;20237;-71
2023/08/22 12:23:44;;;;;;;4.23;2.50;;;36.40;52.30;;;;;;5014074;28;20590;-72
2023/08/22 12:26:10;;;;;;;4.90;3.03;;;36.50;50.70;;;;;;5013890;28;20228;-71
2023/08/22 12:28:37;;;;;;;3.30;2.90;;;36.40;50.10;;;;;;5013760;28;20228;-71
2023/08/22 12:31:04;;;;;;;2.93;2.63;;;36.40;50.20;;;;;;5013590;28;20222;-72
2023/08/22 12:33:31;;;;;;;3.60;2.53;;;36.50;49.80;;;;;;5013740;28;20322;-71
2023/08/22 12:35:58;;;;;;;2.70;2.40;;;36.50;49.80;;;;;;5013689;28;20219;-71
2023/08/22 12:38:25;;;;;;;4.93;2.70;;;36.60;50.90;;;;;;5013238;28;20233;-71
2023/08/22 12:40:54;;;;;;;4.23;2.60;;;36.70;50.10;;;;;;5013304;28;20207;-72
2023/08/22 12:43:21;;;;;;;3.03;2.60;;;36.60;49.30;;;;;;5005254;28;20210;-72
2023/08/22 12:45:48;;;;;;;3.70;2.70;;;36.70;50.30;;;;;;4993683;28;20659;-72
2023/08/22 12:48:14;;;;;;;3.43;2.43;;;36.90;50.50;;;;;;4993892;28;20232;-71
2023/08/22 12:50:41;;;;;;;3.17;2.60;;;37.10;50.20;;;;;;4993543;28;20238;-71
2023/08/22 12:53:09;;;;;;;3.50;3.00;;;37.20;48.70;;;;;;4993880;28;20298;-72